createdAt,value
2022-08-25T00:00:13.439Z,19.25
2022-08-25T00:02:54.943Z,14.65
2022-08-25T00:05:29.401Z,15.32
2022-08-25T00:08:01.061Z,13.43
2022-08-25T00:10:28.809Z,17.37
2022-08-25T00:12:56.243Z,15.85
2022-08-25T00:15:24.006Z,12.98
2022-08-25T00:17:51.941Z,15.35
2022-08-25T00:20:19.518Z,16.83
2022-08-25T00:22:47.219Z,16.52
2022-08-25T00:25:15.062Z,12.90
2022-08-25T00:27:43.768Z,14.05
2022-08-25T00:30:16.714Z,17.35
2022-08-25T00:32:51.493Z,14.70
2022-08-25T00:35:26.006Z,15.32
2022-08-25T00:37:53.548Z,13.62
2022-08-25T00:40:21.655Z,14.25
2022-08-25T00:42:49.467Z,16.67
2022-08-25T00:45:17.044Z,13.75
2022-08-25T00:47:44.492Z,15.77
2022-08-25T00:50:12.650Z,16.40
2022-08-25T00:52:54.299Z,18.55
2022-08-25T00:55:26.129Z,14.73
2022-08-25T00:58:07.875Z,18.30
2022-08-25T01:00:39.527Z,16.40
2022-08-25T01:03:07.232Z,14.70
2022-08-25T01:05:35.306Z,13.77
2022-08-25T01:08:03.396Z,20.02
2022-08-25T01:10:37.019Z,17.08
2022-08-25T01:13:21.359Z,13.35
2022-08-25T01:15:50.139Z,12.20
2022-08-25T01:18:17.977Z,21.08
2022-08-25T01:20:49.983Z,16.10
2022-08-25T01:23:17.650Z,12.77
2022-08-25T01:26:07.813Z,18.62
2022-08-25T01:28:37.003Z,14.48
2022-08-25T01:31:05.297Z,16.10
2022-08-25T01:33:52.146Z,14.57
2022-08-25T01:36:21.030Z,14.18
2022-08-25T01:38:48.951Z,14.32
2022-08-25T01:41:22.710Z,16.02
2022-08-25T01:43:50.191Z,15.02
2022-08-25T01:46:17.950Z,19.08
2022-08-25T01:48:45.399Z,22.25
2022-08-25T01:51:15.142Z,15.32
2022-08-25T01:53:44.328Z,18.08
2022-08-25T01:56:15.241Z,21.58
2022-08-25T01:58:46.873Z,16.27
2022-08-25T02:01:20.604Z,16.15
2022-08-25T02:03:50.987Z,17.90
2022-08-25T02:06:28.909Z,16.35
2022-08-25T02:09:21.979Z,20.62
2022-08-25T02:11:49.424Z,15.10
2022-08-25T02:14:18.305Z,14.63
2022-08-25T02:16:48.957Z,15.75
2022-08-25T02:19:17.408Z,16.10
2022-08-25T02:21:44.928Z,12.98
2022-08-25T02:24:12.840Z,14.65
2022-08-25T02:26:41.875Z,15.13
2022-08-25T02:29:09.956Z,15.25
2022-08-25T02:31:39.286Z,14.13
2022-08-25T02:34:08.119Z,18.85
2022-08-25T02:36:36.668Z,16.62
2022-08-25T02:39:06.560Z,17.87
2022-08-25T02:41:35.026Z,16.05
2022-08-25T02:44:03.935Z,18.45
2022-08-25T02:46:31.911Z,11.82
2022-08-25T02:48:59.995Z,16.05
2022-08-25T02:51:31.613Z,15.02
2022-08-25T02:54:02.149Z,13.07
2022-08-25T02:56:31.532Z,14.57
2022-08-25T02:59:00.391Z,10.43
2022-08-25T03:01:29.252Z,12.82
2022-08-25T03:03:57.523Z,13.40
2022-08-25T03:06:25.489Z,17.00
2022-08-25T03:08:53.267Z,17.83
2022-08-25T03:11:21.792Z,15.77
2022-08-25T03:13:51.061Z,16.77
2022-08-25T03:16:19.053Z,16.48
2022-08-25T03:18:46.872Z,17.27
2022-08-25T03:21:16.230Z,18.62
2022-08-25T03:23:43.933Z,15.55
2022-08-25T03:26:30.029Z,19.52
2022-08-25T03:28:57.474Z,15.75
2022-08-25T03:31:28.649Z,16.98
2022-08-25T03:33:56.107Z,18.55
2022-08-25T03:36:23.899Z,22.62
2022-08-25T03:38:52.852Z,17.05
2022-08-25T03:41:27.917Z,17.05
2022-08-25T03:43:57.102Z,15.95
2022-08-25T03:46:27.332Z,15.40
2022-08-25T03:48:55.566Z,16.83
2022-08-25T03:51:26.429Z,19.02
2022-08-25T03:53:54.195Z,16.87
2022-08-25T03:56:21.702Z,19.20
2022-08-25T03:58:49.546Z,18.23
2022-08-25T04:01:18.215Z,17.85
2022-08-25T04:03:46.820Z,18.98
2022-08-25T04:06:16.439Z,20.02
2022-08-25T04:08:43.931Z,25.02
2022-08-25T04:11:14.246Z,21.10
2022-08-25T04:13:42.436Z,21.87
2022-08-25T04:16:12.907Z,20.37
2022-08-25T04:18:41.844Z,26.40
2022-08-25T04:21:10.113Z,17.10
2022-08-25T04:23:40.611Z,18.60
2022-08-25T04:26:10.803Z,26.48
2022-08-25T04:28:38.981Z,19.92
2022-08-25T04:31:08.256Z,20.27
2022-08-25T04:33:37.198Z,18.92
2022-08-25T04:36:11.483Z,22.25
2022-08-25T04:38:41.589Z,26.50
2022-08-25T04:41:10.593Z,19.58
2022-08-25T04:43:39.684Z,21.70
2022-08-25T04:46:15.541Z,21.95
2022-08-25T04:48:49.425Z,25.25
2022-08-25T04:51:19.731Z,22.92
2022-08-25T04:53:47.375Z,21.42
2022-08-25T04:56:17.481Z,20.05
2022-08-25T04:58:47.138Z,18.92
2022-08-25T05:01:17.484Z,18.95
2022-08-25T05:03:47.830Z,21.52
2022-08-25T05:06:16.360Z,24.02
2022-08-25T05:08:45.875Z,18.73
2022-08-25T05:11:17.403Z,23.02
2022-08-25T05:13:51.357Z,17.65
2022-08-25T05:18:48.010Z,18.42
2022-08-25T05:21:18.190Z,16.45
2022-08-25T05:23:47.035Z,19.23
2022-08-25T05:26:20.442Z,26.48
2022-08-25T05:28:53.171Z,19.15
2022-08-25T05:31:22.848Z,19.80
2022-08-25T05:33:51.941Z,19.37
2022-08-25T05:36:20.180Z,23.25
2022-08-25T05:38:48.322Z,25.60
2022-08-25T05:41:19.046Z,18.62
2022-08-25T05:43:48.913Z,23.40
2022-08-25T05:46:18.546Z,16.77
2022-08-25T05:48:46.234Z,19.73
2022-08-25T05:51:15.070Z,16.87
2022-08-25T05:53:44.960Z,21.52
2022-08-25T05:56:14.053Z,17.52
2022-08-25T05:58:42.587Z,17.52
2022-08-25T06:01:36.683Z,16.83
2022-08-25T06:04:05.438Z,14.55
2022-08-25T06:06:32.959Z,17.25
2022-08-25T06:09:01.956Z,20.10
2022-08-25T06:11:30.599Z,15.85
2022-08-25T06:13:58.022Z,16.60
2022-08-25T06:16:25.482Z,15.65
2022-08-25T06:18:53.297Z,19.05
2022-08-25T06:21:20.981Z,16.58
2022-08-25T06:23:49.306Z,15.93
2022-08-25T06:26:20.873Z,17.15
2022-08-25T06:28:53.268Z,18.42
2022-08-25T06:31:22.467Z,19.90
2022-08-25T06:33:50.696Z,17.25
2022-08-25T06:36:19.385Z,14.52
2022-08-25T06:38:47.640Z,15.85
2022-08-25T06:41:16.568Z,18.05
2022-08-25T06:43:49.031Z,18.23
2022-08-25T06:48:48.579Z,12.13
2022-08-25T06:51:19.387Z,12.00
2022-08-25T06:53:49.026Z,14.13
2022-08-25T06:56:18.363Z,15.55
2022-08-25T06:58:46.341Z,15.77
2022-08-25T07:01:20.626Z,11.63
2022-08-25T07:03:49.233Z,11.90
2022-08-25T07:06:20.594Z,10.38
2022-08-25T07:08:48.170Z,9.20
2022-08-25T07:11:16.550Z,13.25
2022-08-25T07:13:46.025Z,9.82
2022-08-25T07:16:16.968Z,10.50
2022-08-25T07:18:45.528Z,10.77
2022-08-25T07:21:13.702Z,12.20
2022-08-25T07:23:42.017Z,10.80
2022-08-25T07:26:36.852Z,14.23
2022-08-25T07:29:03.570Z,13.98
2022-08-25T07:31:31.648Z,11.43
2022-08-25T07:34:17.755Z,11.80
2022-08-25T07:36:45.507Z,11.52
2022-08-25T07:39:13.084Z,12.52
2022-08-25T07:41:42.130Z,17.10
2022-08-25T07:44:11.941Z,10.13
2022-08-25T07:46:40.354Z,9.98
2022-08-25T07:49:16.623Z,14.25
2022-08-25T07:52:05.670Z,11.57
2022-08-25T07:54:38.198Z,17.17
2022-08-25T07:57:07.684Z,10.88
2022-08-25T07:59:40.382Z,14.00
2022-08-25T08:02:18.804Z,11.55
2022-08-25T08:04:49.751Z,9.98
2022-08-25T08:07:19.804Z,12.27
2022-08-25T08:09:56.170Z,8.70
2022-08-25T08:12:34.825Z,6.78
2022-08-25T08:15:04.255Z,6.80
2022-08-25T08:17:39.602Z,9.13
2022-08-25T08:20:09.972Z,10.95
2022-08-25T08:22:41.289Z,6.78
2022-08-25T08:25:13.724Z,7.50
2022-08-25T08:27:46.981Z,9.43
2022-08-25T08:30:15.104Z,12.60
2022-08-25T08:33:06.342Z,10.38
2022-08-25T08:35:30.932Z,10.93
2022-08-25T08:37:58.342Z,10.13
2022-08-25T08:40:25.994Z,7.32
2022-08-25T08:42:58.592Z,9.00
2022-08-25T08:45:44.029Z,8.88
2022-08-25T08:48:28.177Z,8.65
2022-08-25T08:51:19.988Z,7.70
2022-08-25T08:54:18.615Z,7.87
2022-08-25T08:56:48.968Z,6.87
2022-08-25T08:59:30.296Z,8.25
2022-08-25T09:02:00.764Z,8.90
2022-08-25T09:04:44.320Z,7.32
2022-08-25T09:07:25.843Z,6.57
2022-08-25T09:09:53.905Z,8.07
2022-08-25T09:12:58.623Z,8.73
2022-08-25T09:18:27.145Z,8.27
2022-08-25T09:21:14.616Z,9.45
2022-08-25T09:24:04.809Z,7.60
2022-08-25T09:27:03.963Z,7.53
2022-08-25T09:29:45.273Z,6.37
2022-08-25T09:32:13.219Z,5.78
2022-08-25T09:34:43.780Z,5.97
2022-08-25T09:37:11.213Z,8.10
2022-08-25T09:39:39.204Z,7.32
2022-08-25T09:42:06.675Z,8.15
2022-08-25T09:44:39.006Z,6.75
2022-08-25T09:47:08.270Z,6.20
2022-08-25T09:49:41.907Z,6.22
2022-08-25T09:52:34.313Z,7.65
2022-08-25T09:55:28.013Z,7.30
2022-08-25T09:57:57.505Z,6.53
2022-08-25T10:00:36.766Z,9.77
2022-08-25T10:03:36.501Z,7.05
2022-08-25T10:06:13.754Z,7.85
2022-08-25T10:08:44.911Z,5.87
2022-08-25T10:12:01.209Z,6.45
2022-08-25T10:14:44.315Z,5.28
2022-08-25T10:17:29.563Z,10.02
2022-08-25T10:20:09.627Z,6.25
2022-08-25T10:22:38.907Z,9.43
2022-08-25T10:25:10.188Z,7.72
2022-08-25T10:27:49.977Z,6.28
2022-08-25T10:30:24.268Z,10.38
2022-08-25T10:32:54.869Z,9.48
2022-08-25T10:35:30.399Z,7.47
2022-08-25T10:38:21.658Z,6.70
2022-08-25T10:40:57.121Z,6.50
2022-08-25T10:43:35.892Z,7.05
2022-08-25T10:46:16.601Z,5.87
2022-08-25T10:49:03.224Z,7.85
2022-08-25T10:51:46.137Z,6.68
2022-08-25T10:54:40.474Z,8.23
2022-08-25T10:57:38.027Z,5.80
2022-08-25T11:00:06.972Z,7.15
2022-08-25T11:02:53.496Z,7.37
2022-08-25T11:05:41.582Z,4.60
2022-08-25T11:08:21.488Z,6.60
2022-08-25T11:10:57.048Z,7.87
2022-08-25T11:13:27.673Z,6.40
2022-08-25T11:16:18.772Z,5.93
2022-08-25T11:18:53.395Z,8.18
2022-08-25T11:21:42.518Z,8.27
2022-08-25T11:24:38.136Z,7.03
2022-08-25T11:27:13.648Z,9.45
2022-08-25T11:29:42.736Z,7.65
2022-08-25T11:32:10.646Z,5.10
2022-08-25T11:34:43.863Z,7.30
2022-08-25T11:37:30.895Z,6.22
2022-08-25T11:40:50.024Z,7.75
2022-08-25T11:43:48.635Z,8.18
2022-08-25T11:46:19.509Z,6.93
2022-08-25T11:49:08.835Z,6.37
2022-08-25T11:51:48.393Z,9.77
2022-08-25T11:54:20.927Z,6.93
2022-08-25T11:56:59.831Z,8.55
2022-08-25T11:59:52.017Z,6.55
2022-08-25T12:02:50.557Z,7.90
2022-08-25T12:05:18.944Z,5.55
2022-08-25T12:07:47.026Z,5.82
2022-08-25T12:10:23.476Z,6.72
2022-08-25T12:12:57.318Z,8.48
2022-08-25T12:15:43.086Z,8.98
2022-08-25T12:18:15.176Z,11.10
2022-08-25T12:20:55.180Z,8.30
2022-08-25T12:23:44.595Z,5.93
2022-08-25T12:26:29.009Z,8.48
2022-08-25T12:31:59.160Z,7.18
2022-08-25T12:34:45.306Z,8.13
2022-08-25T12:37:16.873Z,7.18
2022-08-25T12:39:58.802Z,8.15
2022-08-25T12:42:38.223Z,8.55
2022-08-25T12:45:39.465Z,7.90
2022-08-25T12:48:28.816Z,6.55
2022-08-25T12:51:01.959Z,10.35
2022-08-25T12:53:36.519Z,6.53
2022-08-25T12:56:39.099Z,4.87
2022-08-25T12:59:15.289Z,10.02
2022-08-25T13:02:07.218Z,11.80
2022-08-25T13:04:59.040Z,7.53
2022-08-25T13:07:29.744Z,9.18
2022-08-25T13:10:20.551Z,7.62
2022-08-25T13:13:15.774Z,8.07
2022-08-25T13:15:57.504Z,9.98
2022-08-25T13:18:27.451Z,9.43
2022-08-25T13:21:25.520Z,6.95
2022-08-25T13:24:04.689Z,7.62
2022-08-25T13:26:48.451Z,8.40
2022-08-25T13:29:37.387Z,9.98
2022-08-25T13:32:12.899Z,6.70
2022-08-25T13:34:43.125Z,6.60
2022-08-25T13:37:31.177Z,7.62
2022-08-25T13:40:24.794Z,7.43
2022-08-25T13:42:57.457Z,8.15
2022-08-25T13:45:30.078Z,9.70
2022-08-25T13:47:59.572Z,11.27
2022-08-25T13:50:27.307Z,8.57
2022-08-25T13:52:59.351Z,7.18
2022-08-25T13:55:50.492Z,9.02
2022-08-25T13:58:24.423Z,9.02
2022-08-25T14:04:31.986Z,8.52
2022-08-25T14:07:15.446Z,8.25
2022-08-25T14:09:50.154Z,8.68
2022-08-25T14:12:45.504Z,7.35
2022-08-25T14:15:20.147Z,9.15
2022-08-25T14:18:13.988Z,10.38
2022-08-25T14:20:50.693Z,6.40
2022-08-25T14:23:21.018Z,7.72
2022-08-25T14:25:50.685Z,9.30
2022-08-25T14:28:20.938Z,8.93
2022-08-25T14:30:52.368Z,11.23
2022-08-25T14:33:22.229Z,7.32
2022-08-25T14:35:53.787Z,14.00
2022-08-25T14:38:22.412Z,7.70
2022-08-25T14:40:51.090Z,8.20
2022-08-25T14:43:18.558Z,11.93
2022-08-25T14:45:51.984Z,9.52
2022-08-25T14:48:28.619Z,7.65
2022-08-25T14:50:58.370Z,11.38
2022-08-25T14:53:26.493Z,12.90
2022-08-25T14:55:58.791Z,8.50
2022-08-25T14:58:32.383Z,7.55
2022-08-25T15:01:03.125Z,11.18
2022-08-25T15:03:39.055Z,7.50
2022-08-25T15:09:10.696Z,7.95
2022-08-25T15:11:41.677Z,12.00
2022-08-25T15:14:12.105Z,7.15
2022-08-25T15:16:43.285Z,8.18
2022-08-25T15:19:17.055Z,10.15
2022-08-25T15:21:45.904Z,7.35
2022-08-25T15:24:17.750Z,8.52
2022-08-25T15:29:24.516Z,8.00
2022-08-25T15:31:52.187Z,5.30
2022-08-25T15:34:19.648Z,5.87
2022-08-25T15:36:47.729Z,7.12
2022-08-25T15:39:15.985Z,6.57
2022-08-25T15:41:52.182Z,9.65
2022-08-25T15:44:20.423Z,11.02
2022-08-25T15:46:50.080Z,9.48
2022-08-25T15:49:20.870Z,8.13
2022-08-25T15:51:52.637Z,8.82
2022-08-25T15:54:20.847Z,8.40
2022-08-25T15:56:48.231Z,7.82
2022-08-25T15:59:16.069Z,9.52
2022-08-25T16:01:46.471Z,7.22
2022-08-25T16:04:14.610Z,7.85
2022-08-25T16:06:42.004Z,11.25
2022-08-25T16:09:09.619Z,9.85
2022-08-25T16:11:38.788Z,8.73
2022-08-25T16:14:06.443Z,7.35
2022-08-25T16:16:33.998Z,8.05
2022-08-25T16:19:02.418Z,8.13
2022-08-25T16:21:32.679Z,8.82
2022-08-25T16:24:07.207Z,7.80
2022-08-25T16:26:36.577Z,7.87
2022-08-25T16:29:06.598Z,9.98
2022-08-25T16:31:34.192Z,7.53
2022-08-25T16:34:02.069Z,9.40
2022-08-25T16:36:29.700Z,6.80
2022-08-25T16:38:57.821Z,6.35
2022-08-25T16:41:34.109Z,19.12
2022-08-25T16:44:03.733Z,8.27
2022-08-25T16:46:31.494Z,6.80
2022-08-25T16:49:04.652Z,10.63
2022-08-25T16:51:32.743Z,8.57
2022-08-25T16:54:22.190Z,8.68
2022-08-25T16:56:53.732Z,10.43
2022-08-25T16:59:23.793Z,15.30
2022-08-25T17:01:52.337Z,11.75
2022-08-25T17:04:20.689Z,12.05
2022-08-25T17:06:51.607Z,8.60
2022-08-25T17:09:23.747Z,8.90
2022-08-25T17:11:54.245Z,8.63
2022-08-25T17:14:22.521Z,7.70
2022-08-25T17:16:51.264Z,6.70
2022-08-25T17:19:19.038Z,12.07
2022-08-25T17:21:47.777Z,7.05
2022-08-25T17:24:18.049Z,8.18
2022-08-25T17:26:49.815Z,8.77
2022-08-25T17:29:18.378Z,12.43
2022-08-25T17:31:48.345Z,9.48
2022-08-25T17:34:16.868Z,12.15
2022-08-25T17:36:49.332Z,9.13
2022-08-25T17:39:18.434Z,7.55
2022-08-25T17:41:45.937Z,12.80
2022-08-25T17:44:14.261Z,7.93
2022-08-25T17:46:47.492Z,10.35
2022-08-25T17:49:17.125Z,11.45
2022-08-25T17:51:45.196Z,6.60
2022-08-25T17:54:13.271Z,8.85
2022-08-25T17:56:40.951Z,8.70
2022-08-25T17:59:08.629Z,8.40
2022-08-25T18:01:40.865Z,9.93
2022-08-25T18:04:16.970Z,11.52
2022-08-25T18:06:46.431Z,8.30
2022-08-25T18:09:15.362Z,10.57
2022-08-25T18:11:42.767Z,8.50
2022-08-25T18:14:11.459Z,8.77
2022-08-25T18:16:40.374Z,13.60
2022-08-25T18:19:10.938Z,11.63
2022-08-25T18:21:39.394Z,9.82
2022-08-25T18:24:07.406Z,5.62
2022-08-25T18:26:35.633Z,6.87
2022-08-25T18:29:04.059Z,10.68
2022-08-25T18:31:31.710Z,10.55
2022-08-25T18:33:59.848Z,9.23
2022-08-25T18:36:27.514Z,14.80
2022-08-25T18:39:14.363Z,8.13
2022-08-25T18:41:44.974Z,10.50
2022-08-25T18:44:12.696Z,7.37
2022-08-25T18:46:43.452Z,11.35
2022-08-25T18:49:15.702Z,8.75
2022-08-25T18:51:45.043Z,11.48
2022-08-25T18:54:22.385Z,9.63
2022-08-25T18:56:52.957Z,11.25
2022-08-25T18:59:23.397Z,9.00
2022-08-25T19:01:53.091Z,9.73
2022-08-25T19:04:20.909Z,11.32
2022-08-25T19:06:56.169Z,9.82
2022-08-25T19:09:24.128Z,9.35
2022-08-25T19:11:52.692Z,9.43
2022-08-25T19:14:22.190Z,9.80
2022-08-25T19:16:52.031Z,10.32
2022-08-25T19:19:20.901Z,9.48
2022-08-25T19:21:48.512Z,12.25
2022-08-25T19:24:19.428Z,9.05
2022-08-25T19:26:48.825Z,8.13
2022-08-25T19:29:19.287Z,9.43
2022-08-25T19:31:48.993Z,9.60
2022-08-25T19:34:30.414Z,10.98
2022-08-25T19:36:59.901Z,10.63
2022-08-25T19:39:27.800Z,10.15
2022-08-25T19:41:56.846Z,10.60
2022-08-25T19:44:25.433Z,10.63
2022-08-25T19:46:56.494Z,11.60
2022-08-25T19:49:31.792Z,11.10
2022-08-25T19:52:04.181Z,12.77
2022-08-25T19:54:38.405Z,9.07
2022-08-25T19:57:13.662Z,8.10
2022-08-25T19:59:55.851Z,13.25
2022-08-25T20:02:25.733Z,9.70
2022-08-25T20:04:59.654Z,8.65
2022-08-25T20:07:30.343Z,9.43
2022-08-25T20:09:59.744Z,8.60
2022-08-25T20:12:28.128Z,11.23
2022-08-25T20:14:56.792Z,9.25
2022-08-25T20:17:28.585Z,11.90
2022-08-25T20:19:59.419Z,10.10
2022-08-25T20:22:29.444Z,11.65
2022-08-25T20:24:59.876Z,13.52
2022-08-25T20:27:41.002Z,9.15
2022-08-25T20:30:13.368Z,13.57
2022-08-25T20:32:41.103Z,8.63
2022-08-25T20:35:10.368Z,11.63
2022-08-25T20:37:44.947Z,11.20
2022-08-25T20:40:14.328Z,12.05
2022-08-25T20:42:43.569Z,9.95
2022-08-25T20:45:13.300Z,11.38
2022-08-25T20:47:40.970Z,11.43
2022-08-25T20:50:10.618Z,9.65
2022-08-25T20:52:39.110Z,9.00
2022-08-25T20:55:10.258Z,11.38
2022-08-25T20:57:38.590Z,9.55
2022-08-25T21:00:07.401Z,8.18
2022-08-25T21:02:35.147Z,10.07
2022-08-25T21:05:02.791Z,9.48
2022-08-25T21:07:30.668Z,11.12
2022-08-25T21:09:58.414Z,6.90
2022-08-25T21:12:25.888Z,9.70
2022-08-25T21:14:54.422Z,9.88
2022-08-25T21:17:22.091Z,11.93
2022-08-25T21:19:49.826Z,12.07
2022-08-25T21:22:17.334Z,10.93
2022-08-25T21:24:45.641Z,11.25
2022-08-25T21:27:13.245Z,14.63
2022-08-25T21:29:53.687Z,9.40
2022-08-25T21:32:23.642Z,15.77
2022-08-25T21:34:52.911Z,9.52
2022-08-25T21:37:21.210Z,9.20
2022-08-25T21:39:49.164Z,12.25
2022-08-25T21:42:17.557Z,10.65
2022-08-25T21:44:45.100Z,12.20
2022-08-25T21:47:12.787Z,11.30
2022-08-25T21:49:40.236Z,13.68
2022-08-25T21:52:07.970Z,9.23
2022-08-25T21:54:35.706Z,10.80
2022-08-25T21:57:04.645Z,13.00
2022-08-25T21:59:34.995Z,11.73
2022-08-25T22:02:05.260Z,8.95
2022-08-25T22:04:33.553Z,11.10
2022-08-25T22:07:01.340Z,13.55
2022-08-25T22:09:30.689Z,13.32
2022-08-25T22:11:59.201Z,14.13
2022-08-25T22:14:27.528Z,10.57
2022-08-25T22:16:55.703Z,10.02
2022-08-25T22:19:23.874Z,9.63
2022-08-25T22:21:53.261Z,12.35
2022-08-25T22:24:21.575Z,13.00
2022-08-25T22:26:49.428Z,10.40
2022-08-25T22:29:25.417Z,12.73
2022-08-25T22:31:59.361Z,10.40
2022-08-25T22:34:34.420Z,13.57
2022-08-25T22:37:03.802Z,11.00
2022-08-25T22:39:32.201Z,14.68
2022-08-25T22:42:03.284Z,14.50
2022-08-25T22:44:30.826Z,12.63
2022-08-25T22:46:58.271Z,11.85
2022-08-25T22:49:28.866Z,9.18
2022-08-25T22:51:56.322Z,12.07
2022-08-25T22:54:25.586Z,9.57
2022-08-25T22:56:53.718Z,12.70
2022-08-25T22:59:22.538Z,15.75
2022-08-25T23:01:52.633Z,12.27
2022-08-25T23:04:22.660Z,12.77
2022-08-25T23:06:50.559Z,12.65
2022-08-25T23:09:18.048Z,12.93
2022-08-25T23:11:45.733Z,13.18
2022-08-25T23:14:13.131Z,9.60
2022-08-25T23:16:41.860Z,12.02
2022-08-25T23:19:13.559Z,14.07
2022-08-25T23:22:01.815Z,11.77
2022-08-25T23:24:30.882Z,12.77
2022-08-25T23:26:59.624Z,13.00
2022-08-25T23:29:28.862Z,10.98
2022-08-25T23:31:57.553Z,11.23
2022-08-25T23:34:25.830Z,12.75
2022-08-25T23:36:53.713Z,10.45
2022-08-25T23:39:22.195Z,18.45
2022-08-25T23:41:50.301Z,12.48
2022-08-25T23:44:18.956Z,11.80
2022-08-25T23:46:47.816Z,11.73
2022-08-25T23:49:18.256Z,13.57
2022-08-25T23:51:47.684Z,13.13
2022-08-25T23:54:17.981Z,12.15
2022-08-25T23:56:51.613Z,9.10
